Metar z połowy godziny Komunikat METAR ze strony awiacja.imgw.pl Metar G30 EPSY METAR EPSY 231230Z 18008KT 150V220 CAVOK 18/04 Q1011=